Weather History for KHRX - April, 2013

Change the Weather History Date:

Wednesday, April 3, 2013

  Actual Average (KAMA) Record (KAMA)
Temperature  
Mean Temperature 38 °F 53 °F  
Max Temperature 44 °F 68 °F 91 °F (2011)
Min Temperature 32 °F 38 °F 18 °F (1920)
Degree Days  
Heating Degree Days 27 13  
Month to date heating degree days 39  
Since 1 July heating degree days 3848  
Cooling Degree Days 0 0  
Month to date cooling degree days 0  
Year to date cooling degree days 2  
Moisture  
Dew Point 31 °F    
Average Humidity 87    
Maximum Humidity 98    
Minimum Humidity 62    
Precipitation  
Precipitation 0.00 in 0.05 in 1.70 in (1997)
Month to date precipitation 0.14  
Year to date precipitation 2.81  
Snow  
Snow 0.00 in 0.00 in 0.50 in (1920)
Month to date snowfall 0.1  
Since 1 July snowfall 17.0  
Snow Depth -    
Sea Level Pressure  
Sea Level Pressure 30.16 in    
Wind  
Wind Speed 12 mph (NNE)    
Max Wind Speed 16 mph    
Max Gust Speed 21 mph    
Visibility 8 miles    
Events Fog    
T = Trace of Precipitation, MM = Missing Value Source: NWS Daily Summary

Daily Weather History Graph

Daily Weather History Graph

Search for Another Location

Airport or City:

Trip Planner

Search our weather history database for the weather conditions in past years. The results will help you decide how hot, cold, wet, or windy it might be!

Date:

Astronomy

Apr. 03, 2013 Rise Set
Actual Time 7:33 AM CDT 8:12 PM CDT
Civil Twilight 7:07 AM CDT 8:37 PM CDT
Nautical Twilight 6:37 AM CDT 9:08 PM CDT
Astronomical Twilight 6:06 AM CDT 9:38 PM CDT
Moon 3:00 AM CDT 1:41 PM CDT
Length of Visible Light 13h 30m
Length of Day
12h 39m
Last Quarter, 44% of the Moon is Illuminated
Apr 3
Last Quarter
Apr 10
New
Apr 18
First Quarter
Apr 25
Full
May 2
Last Quarter

Hourly Weather History & Observations

Time (CDT) Temp. Windchill Dew Point Humidity Pressure Visibility Wind Dir Wind Speed Gust Speed Precip Events Conditions
12:15 AM 33.1 °F 23.4 °F 32.0 °F 96% 30.13 in 7.0 mi NE 13.8 mph - N/A   Overcast
12:35 AM 33.3 °F 22.8 °F 32.0 °F 95% 30.11 in 2.0 mi ENE 16.1 mph - N/A   Overcast
12:55 AM 33.3 °F 23.2 °F 32.0 °F 95% 30.10 in 0.5 mi ENE 15.0 mph 20.7 mph N/A Fog Fog
1:15 AM 32.9 °F 23.7 °F 32.0 °F 96% 30.11 in 0.8 mi NE 12.7 mph - N/A   Overcast
1:35 AM 32.2 °F 22.7 °F 31.5 °F 97% 30.11 in 7.0 mi NE 12.7 mph - N/A   Overcast
1:55 AM 32.4 °F 24.6 °F 31.5 °F 96% 30.13 in 7.0 mi NNE 9.2 mph - N/A   Overcast
2:15 AM 32.5 °F 24.2 °F 31.6 °F 96% 30.14 in 0.5 mi North 10.4 mph - N/A Fog Fog
2:35 AM 32.4 °F 24.0 °F 31.6 °F 97% 30.13 in 1.2 mi North 10.4 mph - N/A   Overcast
2:55 AM 32.4 °F 23.0 °F 31.5 °F 96% 30.13 in 1.0 mi NNE 12.7 mph - N/A   Overcast
3:15 AM 32.0 °F 22.5 °F 31.1 °F 96% 30.13 in 2.5 mi NNE 12.7 mph - N/A   Overcast
3:35 AM 32.0 °F 22.5 °F 31.1 °F 96% 30.12 in 3.0 mi NNE 12.7 mph - N/A   Overcast
3:55 AM 32.2 °F 22.7 °F 31.5 °F 97% 30.12 in 2.0 mi NNE 12.7 mph - N/A   Overcast
4:15 AM 32.2 °F 23.2 °F 31.3 °F 96% 30.13 in 1.2 mi NNE 11.5 mph - N/A   Overcast
4:35 AM 32.0 °F 23.0 °F 31.5 °F 98% 30.13 in 1.5 mi NNE 11.5 mph - N/A   Overcast
4:55 AM 32.0 °F 23.6 °F 31.1 °F 96% 30.13 in 4.0 mi North 10.4 mph - N/A   Overcast
5:15 AM 32.0 °F 23.0 °F 31.5 °F 98% 30.13 in 4.0 mi North 11.5 mph - N/A   Overcast
5:35 AM 32.0 °F 23.6 °F 31.3 °F 97% 30.13 in 4.0 mi North 10.4 mph - N/A   Overcast
5:55 AM 32.0 °F 23.0 °F 31.1 °F 96% 30.14 in 4.0 mi North 11.5 mph - N/A   Overcast
6:15 AM 32.0 °F 22.5 °F 30.9 °F 96% 30.14 in 5.0 mi North 12.7 mph - N/A   Overcast
6:35 AM 32.0 °F 23.0 °F 30.9 °F 96% 30.14 in 3.0 mi North 11.5 mph - N/A   Overcast
6:55 AM 32.0 °F 22.5 °F 30.9 °F 96% 30.14 in 5.0 mi North 12.7 mph - N/A   Overcast
7:15 AM 32.0 °F 22.1 °F 30.6 °F 94% 30.15 in 5.0 mi North 13.8 mph - N/A   Overcast
7:35 AM 32.0 °F 22.5 °F 30.2 °F 93% 30.15 in 7.0 mi NNE 12.7 mph - N/A   Overcast
7:55 AM 32.0 °F 23.0 °F 30.2 °F 93% 30.15 in 7.0 mi North 11.5 mph - N/A   Overcast
8:15 AM 32.0 °F 22.5 °F 30.6 °F 94% 30.16 in 10.0 mi North 12.7 mph - N/A   Overcast
8:35 AM 32.0 °F 22.1 °F 30.6 °F 94% 30.16 in 10.0 mi North 13.8 mph - N/A   Overcast
8:55 AM 32.2 °F 22.3 °F 30.9 °F 95% 30.17 in 10.0 mi North 13.8 mph - N/A   Overcast
9:15 AM 32.0 °F 23.0 °F 30.6 °F 94% 30.17 in 10.0 mi NNE 11.5 mph - N/A   Overcast
9:35 AM 32.4 °F 23.0 °F 30.7 °F 94% 30.17 in 10.0 mi NNE 12.7 mph - N/A   Overcast
9:55 AM 32.9 °F 23.2 °F 31.1 °F 93% 30.18 in 10.0 mi North 13.8 mph - N/A   Overcast
10:15 AM 32.5 °F 22.7 °F 30.9 °F 94% 30.18 in 10.0 mi NNE 13.8 mph - N/A   Overcast
10:35 AM 32.5 °F 22.3 °F 30.9 °F 94% 30.19 in 10.0 mi NNE 15.0 mph - N/A   Overcast
10:55 AM 32.4 °F 21.7 °F 31.1 °F 95% 30.19 in 7.0 mi North 16.1 mph - N/A   Overcast
11:15 AM 32.9 °F 23.2 °F 31.3 °F 94% 30.19 in 5.0 mi NNE 13.8 mph - N/A   Overcast
11:35 AM 33.1 °F 23.4 °F 31.6 °F 94% 30.19 in 10.0 mi NNE 13.8 mph - N/A   Overcast
11:55 AM 33.4 °F 24.3 °F 32.0 °F 94% 30.19 in 7.0 mi NNE 12.7 mph - N/A   Overcast
12:15 PM 33.8 °F 25.8 °F 32.0 °F 93% 30.19 in 7.0 mi North 10.4 mph - N/A   Overcast
12:35 PM 34.3 °F 25.9 °F 32.0 °F 91% 30.19 in 7.0 mi NNE 11.5 mph - N/A   Overcast
1:15 PM 34.7 °F 26.4 °F 32.2 °F 91% 30.19 in 10.0 mi NNE 11.5 mph 18.4 mph N/A   Overcast
1:35 PM 34.9 °F 26.2 °F 32.2 °F 90% 30.19 in 10.0 mi NNE 12.7 mph - N/A   Overcast
1:55 PM 35.1 °F 26.4 °F 32.2 °F 89% 30.18 in 10.0 mi NNE 12.7 mph - N/A   Overcast
2:15 PM 36.0 °F 27.1 °F 32.4 °F 87% 30.17 in 10.0 mi NNE 13.8 mph - N/A   Overcast
2:35 PM 36.9 °F 29.1 °F 32.7 °F 85% 30.17 in 10.0 mi NNE 11.5 mph 17.3 mph N/A   Overcast
2:55 PM 37.9 °F 30.0 °F 32.4 °F 80% 30.17 in 10.0 mi NNE 12.7 mph - N/A   Overcast
3:15 PM 38.3 °F 30.1 °F 32.5 °F 80% 30.17 in 10.0 mi NNE 13.8 mph 19.6 mph N/A   Overcast
3:35 PM 39.7 °F 32.3 °F 32.5 °F 75% 30.16 in 10.0 mi North 12.7 mph - N/A   Overcast
3:55 PM 41.4 °F 34.3 °F 32.7 °F 71% 30.16 in 10.0 mi North 12.7 mph - N/A   Overcast
4:15 PM 43.3 °F 36.1 °F 32.7 °F 66% 30.15 in 10.0 mi NNE 15.0 mph 18.4 mph N/A   Overcast
4:35 PM 43.5 °F 37.9 °F 32.5 °F 65% 30.15 in 10.0 mi NNE 10.4 mph - N/A   Mostly Cloudy
4:55 PM 44.2 °F 38.4 °F 32.7 °F 64% 30.15 in 10.0 mi NNE 11.5 mph 19.6 mph N/A   Overcast
5:15 PM 44.6 °F 38.4 °F 32.4 °F 62% 30.15 in 10.0 mi NE 12.7 mph 16.1 mph N/A   Mostly Cloudy
5:35 PM 44.8 °F 38.3 °F 32.4 °F 62% 30.14 in 10.0 mi NNE 13.8 mph 17.3 mph N/A   Mostly Cloudy
5:55 PM 42.6 °F 35.9 °F 32.0 °F 66% 30.14 in 10.0 mi NNE 12.7 mph - N/A   Scattered Clouds
6:15 PM 43.2 °F 37.0 °F 32.0 °F 65% 30.14 in 10.0 mi North 11.5 mph - N/A   Scattered Clouds
6:35 PM 42.3 °F 36.3 °F 32.0 °F 67% 30.13 in 10.0 mi NNE 10.4 mph - N/A   Scattered Clouds
6:55 PM 42.1 °F 36.6 °F 31.8 °F 67% 30.14 in 10.0 mi NNE 9.2 mph - N/A   Clear
7:15 PM 41.5 °F 36.4 °F 32.0 °F 69% 30.15 in 10.0 mi North 8.1 mph - N/A   Scattered Clouds
7:35 PM 41.0 °F 35.2 °F 31.8 °F 70% 30.16 in 10.0 mi NNE 9.2 mph - N/A   Scattered Clouds
7:55 PM 39.4 °F 33.8 °F 31.5 °F 73% 30.17 in 10.0 mi NNE 8.1 mph - N/A   Clear
8:15 PM 37.6 °F 32.3 °F 31.1 °F 77% 30.16 in 10.0 mi North 6.9 mph - N/A   Scattered Clouds
8:35 PM 35.8 °F 29.4 °F 30.7 °F 82% 30.17 in 10.0 mi NNE 8.1 mph - N/A   Clear
8:55 PM 34.9 °F 29.9 °F 29.8 °F 82% 30.17 in 10.0 mi North 5.8 mph - N/A   Scattered Clouds
9:15 PM 34.0 °F 29.8 °F 29.8 °F 85% 30.17 in 10.0 mi NE 4.6 mph - N/A   Scattered Clouds
9:35 PM 32.9 °F 27.5 °F 29.1 °F 86% 30.18 in 10.0 mi NNE 5.8 mph - N/A   Scattered Clouds
9:55 PM 32.4 °F 26.0 °F 28.6 °F 86% 30.19 in 10.0 mi NE 6.9 mph - N/A   Scattered Clouds
10:15 PM 32.0 °F 27.5 °F 28.4 °F 87% 30.20 in 10.0 mi NE 4.6 mph - N/A   Scattered Clouds
10:35 PM 32.4 °F 26.9 °F 29.1 °F 88% 30.20 in 10.0 mi NE 5.8 mph - N/A   Mostly Cloudy
10:55 PM 34.0 °F 31.0 °F 30.6 °F 87% 30.20 in 10.0 mi NNE 3.5 mph - N/A   Overcast
11:15 PM 33.8 °F 28.6 °F 30.2 °F 87% 30.19 in 10.0 mi NNE 5.8 mph - N/A   Overcast
11:35 PM 33.8 °F 30.8 °F 30.2 °F 87% 30.20 in 10.0 mi NW 3.5 mph - N/A   Overcast
11:55 PM 33.4 °F 29.1 °F 30.2 °F 88% 30.20 in 10.0 mi WNW 4.6 mph - N/A   Overcast